createdAt,value
2022-11-28T00:01:24.017Z,93756.19
2022-11-28T00:03:50.571Z,93729.41
2022-11-28T00:06:18.084Z,93748.31
2022-11-28T00:08:45.272Z,93736.19
2022-11-28T00:11:13.724Z,93739.13
2022-11-28T00:13:40.505Z,93726.47
2022-11-28T00:16:09.328Z,93745.28
2022-11-28T00:18:35.931Z,93722.91
2022-11-28T00:21:08.298Z,93731.75
2022-11-28T00:23:34.773Z,93723.06
2022-11-28T00:26:06.088Z,93721.16
2022-11-28T00:28:44.868Z,93723.50
2022-11-28T00:31:16.163Z,93700.53
2022-11-28T00:33:42.866Z,93729.06
2022-11-28T00:36:34.360Z,93726.84
2022-11-28T00:39:00.804Z,93724.00
2022-11-28T00:41:29.139Z,93713.69
2022-11-28T00:43:55.908Z,93694.16
2022-11-28T00:46:23.333Z,93704.63
2022-11-28T00:48:50.344Z,93714.25
2022-11-28T00:51:23.310Z,93698.44
2022-11-28T00:53:57.736Z,93667.69
2022-11-28T00:56:30.857Z,93672.47
2022-11-28T00:58:57.551Z,93658.66
2022-11-28T01:01:27.929Z,93699.47
2022-11-28T01:04:08.093Z,93684.19
2022-11-28T01:06:40.348Z,93680.94
2022-11-28T01:09:16.671Z,93703.38
2022-11-28T01:11:43.627Z,93623.44
2022-11-28T01:14:11.989Z,93670.63
2022-11-28T01:16:58.867Z,93695.53
2022-11-28T01:19:25.292Z,93673.16
2022-11-28T01:21:51.689Z,93676.81
2022-11-28T01:25:07.126Z,93689.94
2022-11-28T01:27:33.535Z,93667.00
2022-11-28T01:29:59.957Z,93703.59
2022-11-28T01:32:26.341Z,93690.81
2022-11-28T01:34:52.803Z,93657.97
2022-11-28T01:37:19.241Z,93671.13
2022-11-28T01:39:45.687Z,93682.81
2022-11-28T01:42:21.165Z,93681.34
2022-11-28T01:44:47.758Z,93690.75
2022-11-28T01:47:17.762Z,93702.03
2022-11-28T01:49:47.094Z,93693.06
2022-11-28T01:52:17.275Z,93671.94
2022-11-28T01:55:15.490Z,93691.47
2022-11-28T01:57:42.680Z,93661.69
2022-11-28T02:00:12.347Z,93670.13
2022-11-28T02:02:40.812Z,93683.06
2022-11-28T02:05:08.171Z,93626.59
2022-11-28T02:07:35.916Z,93623.13
2022-11-28T02:10:05.689Z,93618.94
2022-11-28T02:12:51.891Z,93616.28
2022-11-28T02:15:36.690Z,93604.00
2022-11-28T02:18:23.004Z,93597.16
2022-11-28T02:20:55.490Z,93593.56
2022-11-28T02:23:57.449Z,93589.13
2022-11-28T02:26:45.191Z,93592.47
2022-11-28T02:29:39.990Z,93585.09
2022-11-28T02:32:16.337Z,93578.34
2022-11-28T02:34:56.862Z,93569.69
2022-11-28T02:37:26.834Z,93563.53
2022-11-28T02:40:27.351Z,93559.66
2022-11-28T02:43:11.695Z,93552.13
2022-11-28T02:45:53.172Z,93556.50
2022-11-28T02:48:49.900Z,93558.44
2022-11-28T02:51:24.611Z,93542.97
2022-11-28T02:53:55.348Z,93544.31
2022-11-28T02:56:24.789Z,93532.38
2022-11-28T02:58:51.288Z,93534.94
2022-11-28T03:01:44.311Z,93545.25
2022-11-28T03:04:31.655Z,93548.84
2022-11-28T03:07:39.295Z,93546.91
2022-11-28T03:10:43.137Z,93552.38
2022-11-28T03:13:41.175Z,93567.84
2022-11-28T03:16:07.771Z,93580.53
2022-11-28T03:18:58.058Z,93584.56
2022-11-28T03:21:38.521Z,93581.66
2022-11-28T03:24:13.496Z,93597.09
2022-11-28T03:26:51.353Z,93553.53
2022-11-28T03:29:23.742Z,93593.91
2022-11-28T03:31:59.066Z,93562.31
2022-11-28T03:34:36.975Z,93561.31
2022-11-28T03:37:10.161Z,93592.91
2022-11-28T03:39:40.227Z,93595.16
2022-11-28T03:42:24.533Z,93567.38
2022-11-28T03:45:02.730Z,93590.19
2022-11-28T03:47:35.076Z,93586.16
2022-11-28T03:50:08.321Z,93584.22
2022-11-28T03:52:48.883Z,93583.25
2022-11-28T03:55:32.632Z,93572.94
2022-11-28T03:58:30.096Z,93597.00
2022-11-28T04:01:30.541Z,93616.59
2022-11-28T04:04:10.029Z,93621.69
2022-11-28T04:06:43.224Z,93604.53
2022-11-28T04:09:18.852Z,93636.00
2022-11-28T04:11:51.839Z,93624.53
2022-11-28T04:14:18.181Z,93632.28
2022-11-28T04:16:53.617Z,93624.50
2022-11-28T04:19:28.918Z,93627.72
2022-11-28T04:22:14.553Z,93623.81
2022-11-28T04:24:55.020Z,93620.63
2022-11-28T04:27:31.861Z,93607.78
2022-11-28T04:30:02.042Z,93603.88
2022-11-28T04:33:07.537Z,93607.78
2022-11-28T04:35:38.790Z,93570.00
2022-11-28T04:38:09.217Z,93589.88
2022-11-28T04:41:07.780Z,93586.84
2022-11-28T04:43:39.035Z,93563.56
2022-11-28T04:46:12.585Z,93563.94
2022-11-28T04:48:39.024Z,93572.53
2022-11-28T04:51:23.137Z,93584.84
2022-11-28T04:53:54.011Z,93594.47
2022-11-28T04:57:02.409Z,93593.03
2022-11-28T04:59:31.546Z,93569.78
2022-11-28T05:02:02.706Z,93570.13
2022-11-28T05:04:36.702Z,93563.03
2022-11-28T05:07:05.953Z,93567.88
2022-11-28T05:09:32.536Z,93549.34
2022-11-28T05:12:09.181Z,93553.03
2022-11-28T05:14:35.714Z,93566.28
2022-11-28T05:17:02.253Z,93549.00
2022-11-28T05:19:30.704Z,93553.84
2022-11-28T05:22:08.349Z,93530.44
2022-11-28T05:24:36.796Z,93534.31
2022-11-28T05:27:03.506Z,93531.25
2022-11-28T05:29:30.210Z,93545.97
2022-11-28T05:32:00.761Z,93503.97
2022-11-28T05:34:33.139Z,93512.53
2022-11-28T05:36:59.639Z,93506.88
2022-11-28T05:39:27.170Z,93495.28
2022-11-28T05:42:17.720Z,93531.44
2022-11-28T05:45:14.165Z,93539.94
2022-11-28T05:47:40.572Z,93501.41
2022-11-28T05:50:08.040Z,93515.94
2022-11-28T05:52:34.595Z,93517.22
2022-11-28T05:55:01.599Z,93522.72
2022-11-28T05:57:29.996Z,93539.81
2022-11-28T06:00:12.245Z,93546.28
2022-11-28T06:02:38.852Z,93532.38
2022-11-28T06:05:27.249Z,93529.16
2022-11-28T06:07:52.300Z,93532.53
2022-11-28T06:10:19.191Z,93526.25
2022-11-28T06:12:45.595Z,93529.81
2022-11-28T06:15:12.170Z,93529.81
2022-11-28T06:17:38.638Z,93526.25
2022-11-28T06:20:05.907Z,93514.94
2022-11-28T06:22:32.384Z,93530.78
2022-11-28T06:24:58.790Z,93527.53
2022-11-28T06:27:34.828Z,93531.09
2022-11-28T06:30:01.243Z,93524.31
2022-11-28T06:32:27.657Z,93519.47
2022-11-28T06:34:54.053Z,93523.53
2022-11-28T06:37:26.660Z,93507.56
2022-11-28T06:39:53.443Z,93527.88
2022-11-28T06:42:19.984Z,93513.69
2022-11-28T06:45:14.274Z,93542.06
2022-11-28T06:47:48.880Z,93529.81
2022-11-28T06:50:15.669Z,93523.53
2022-11-28T06:52:55.806Z,93526.56
2022-11-28T06:55:29.761Z,93529.81
2022-11-28T06:57:56.236Z,93538.22
2022-11-28T07:00:35.113Z,93518.19
2022-11-28T07:03:04.707Z,93519.47
2022-11-28T07:05:31.153Z,93509.16
2022-11-28T07:07:58.349Z,93525.94
2022-11-28T07:10:25.762Z,93529.47
2022-11-28T07:13:02.410Z,93535.63
2022-11-28T07:15:31.702Z,93535.94
2022-11-28T07:18:04.457Z,93536.59
2022-11-28T07:20:30.864Z,93542.06
2022-11-28T07:22:57.292Z,93526.91
2022-11-28T07:25:23.702Z,93520.47
2022-11-28T07:27:50.122Z,93521.72
2022-11-28T07:30:16.682Z,93546.91
2022-11-28T07:32:43.093Z,93531.56
2022-11-28T07:35:29.758Z,93540.28
2022-11-28T07:37:56.207Z,93528.81
2022-11-28T07:40:22.859Z,93518.50
2022-11-28T07:42:49.317Z,93540.94
2022-11-28T07:45:53.471Z,93529.81
2022-11-28T07:48:16.171Z,93526.56
2022-11-28T07:50:42.574Z,93511.06
2022-11-28T07:53:08.974Z,93517.53
2022-11-28T07:55:36.371Z,93537.84
2022-11-28T07:58:05.894Z,93548.19
2022-11-28T08:00:33.358Z,93531.72
2022-11-28T08:02:59.876Z,93564.94
2022-11-28T08:05:26.295Z,93542.53
2022-11-28T08:07:52.735Z,93540.25
2022-11-28T08:10:19.582Z,93540.03
2022-11-28T08:12:46.012Z,93557.81
2022-11-28T08:15:12.423Z,93534.59
2022-11-28T08:17:38.854Z,93552.66
2022-11-28T08:20:05.976Z,93535.34
2022-11-28T08:22:32.421Z,93551.66
2022-11-28T08:24:58.822Z,93548.41
2022-11-28T08:27:25.264Z,93560.59
2022-11-28T08:29:53.511Z,93525.22
2022-11-28T08:32:20.448Z,93540.94
2022-11-28T08:34:46.870Z,93551.50
2022-11-28T08:37:13.290Z,93550.56
2022-11-28T08:39:39.696Z,93565.19
2022-11-28T08:42:06.169Z,93546.81
2022-11-28T08:44:32.847Z,93565.19
2022-11-28T08:46:59.258Z,93551.22
2022-11-28T08:49:53.804Z,93575.31
2022-11-28T08:52:20.223Z,93559.53
2022-11-28T08:54:46.668Z,93557.22
2022-11-28T08:57:13.089Z,93572.09
2022-11-28T08:59:39.550Z,93558.44
2022-11-28T09:02:06.542Z,93545.91
2022-11-28T09:04:33.988Z,93550.50
2022-11-28T09:07:00.477Z,93543.72
2022-11-28T09:09:32.752Z,93551.84
2022-11-28T09:11:59.461Z,93562.03
2022-11-28T09:14:26.836Z,93565.59
2022-11-28T09:16:53.442Z,93571.78
2022-11-28T09:19:19.959Z,93585.84
2022-11-28T09:21:57.504Z,93572.59
2022-11-28T09:24:24.559Z,93565.88
2022-11-28T09:26:50.969Z,93564.75
2022-11-28T09:29:17.375Z,93580.75
2022-11-28T09:31:47.308Z,93559.44
2022-11-28T09:34:14.232Z,93560.56
2022-11-28T09:36:40.864Z,93564.97
2022-11-28T09:39:07.626Z,93540.19
2022-11-28T09:41:49.211Z,93571.13
2022-11-28T09:44:22.426Z,93553.53
2022-11-28T09:46:53.477Z,93560.66
2022-11-28T09:50:06.963Z,93573.06
2022-11-28T09:53:10.788Z,93583.47
2022-11-28T09:55:52.160Z,93565.03
2022-11-28T09:58:43.397Z,93551.06
2022-11-28T10:01:22.917Z,93566.44
2022-11-28T10:04:12.752Z,93565.38
2022-11-28T10:06:52.819Z,93548.69
2022-11-28T10:09:51.258Z,93546.75
2022-11-28T10:12:45.541Z,93551.41
2022-11-28T10:15:39.925Z,93549.47
2022-11-28T10:18:41.730Z,93548.97
2022-11-28T10:21:31.216Z,93540.97
2022-11-28T10:24:02.152Z,93524.38
2022-11-28T10:26:36.086Z,93545.88
2022-11-28T10:29:11.611Z,93543.50
2022-11-28T10:31:44.072Z,93543.78
2022-11-28T10:34:24.676Z,93517.78
2022-11-28T10:37:00.763Z,93526.75
2022-11-28T10:39:27.866Z,93532.13
2022-11-28T10:42:13.650Z,93531.75
2022-11-28T10:45:06.721Z,93528.16
2022-11-28T10:47:51.451Z,93536.63
2022-11-28T10:50:32.543Z,93515.50
2022-11-28T10:53:15.380Z,93537.63
2022-11-28T10:55:54.286Z,93535.94
2022-11-28T10:58:29.719Z,93518.41
2022-11-28T11:00:57.940Z,93533.66
2022-11-28T11:03:37.999Z,93531.75
2022-11-28T11:06:04.594Z,93532.13
2022-11-28T11:08:37.165Z,93531.56
2022-11-28T11:11:24.396Z,93528.38
2022-11-28T11:14:00.422Z,93527.44
2022-11-28T11:16:56.861Z,93520.34
2022-11-28T11:19:35.999Z,93516.75
2022-11-28T11:22:20.694Z,93519.38
2022-11-28T11:25:20.403Z,93528.41
2022-11-28T11:27:58.362Z,93492.28
2022-11-28T11:30:34.729Z,93502.75
2022-11-28T11:33:02.040Z,93517.97
2022-11-28T11:35:32.983Z,93490.09
2022-11-28T11:38:37.785Z,93517.25
2022-11-28T11:41:26.681Z,93506.03
2022-11-28T11:43:53.103Z,93500.41
2022-11-28T11:46:19.552Z,93480.38
2022-11-28T11:48:48.050Z,93505.28
2022-11-28T11:51:39.413Z,93495.66
2022-11-28T11:54:16.503Z,93491.28
2022-11-28T11:56:46.647Z,93498.50
2022-11-28T11:59:18.026Z,93468.00
2022-11-28T12:01:46.705Z,93475.03
2022-11-28T12:04:43.919Z,93488.28
2022-11-28T12:07:18.681Z,93485.28
2022-11-28T12:09:48.042Z,93486.44
2022-11-28T12:12:25.074Z,93493.69
2022-11-28T12:14:57.813Z,93473.22
2022-11-28T12:17:53.411Z,93490.88
2022-11-28T12:20:29.527Z,93481.63
2022-11-28T12:23:39.200Z,93474.41
2022-11-28T12:26:30.257Z,93451.13
2022-11-28T12:29:03.514Z,93467.63
2022-11-28T12:31:56.593Z,93473.84
2022-11-28T12:34:42.701Z,93469.25
2022-11-28T12:37:09.028Z,93471.59
2022-11-28T12:39:50.432Z,93467.63
2022-11-28T12:42:47.443Z,93456.75
2022-11-28T12:45:41.910Z,93470.00
2022-11-28T12:48:23.946Z,93470.41
2022-11-28T12:51:07.473Z,93452.75
2022-11-28T12:54:00.265Z,93451.13
2022-11-28T12:56:45.076Z,93454.56
2022-11-28T12:59:30.529Z,93472.63
2022-11-28T13:02:15.222Z,93463.56
2022-11-28T13:05:03.604Z,93458.75
2022-11-28T13:07:52.108Z,93453.94
2022-11-28T13:10:31.804Z,93464.38
2022-11-28T13:13:03.237Z,93443.91
2022-11-28T13:16:06.697Z,93459.97
2022-11-28T13:18:40.736Z,93464.38
2022-11-28T13:21:12.925Z,93469.59
2022-11-28T13:23:53.496Z,93444.72
2022-11-28T13:26:45.930Z,93458.34
2022-11-28T13:29:52.092Z,93463.97
2022-11-28T13:32:59.256Z,93458.75
2022-11-28T13:35:30.434Z,93440.31
2022-11-28T13:38:35.974Z,93458.56
2022-11-28T13:45:07.167Z,93434.31
2022-11-28T13:47:37.897Z,93436.28
2022-11-28T13:51:01.379Z,93450.34
2022-11-28T13:53:35.740Z,93424.66
2022-11-28T13:56:08.185Z,93448.13
2022-11-28T13:58:52.811Z,93421.88
2022-11-28T14:01:44.627Z,93414.25
2022-11-28T14:04:15.251Z,93427.69
2022-11-28T14:06:46.353Z,93442.72
2022-11-28T14:09:40.043Z,93436.28
2022-11-28T14:12:31.198Z,93443.09
2022-11-28T14:15:38.387Z,93442.72
2022-11-28T14:19:02.039Z,93439.91
2022-11-28T14:22:16.199Z,93439.06
2022-11-28T14:25:04.426Z,93441.47
2022-11-28T14:27:34.622Z,93445.44
2022-11-28T14:30:34.353Z,93443.47
2022-11-28T14:33:36.817Z,93445.31
2022-11-28T14:36:41.744Z,93447.91
2022-11-28T14:39:15.402Z,93449.50
2022-11-28T14:42:09.752Z,93456.31
2022-11-28T14:44:50.527Z,93455.47
2022-11-28T14:47:42.722Z,93450.44
2022-11-28T14:50:13.275Z,93461.03
2022-11-28T14:52:48.246Z,93455.25
2022-11-28T14:55:22.492Z,93437.75
2022-11-28T14:58:05.186Z,93453.31
2022-11-28T15:00:49.359Z,93452.41
2022-11-28T15:03:19.663Z,93457.56
2022-11-28T15:06:02.922Z,93444.69
2022-11-28T15:08:45.513Z,93461.88
2022-11-28T15:11:25.635Z,93457.44
2022-11-28T15:14:25.640Z,93457.00
2022-11-28T15:17:06.807Z,93432.88
2022-11-28T15:19:43.126Z,93450.53
2022-11-28T15:22:41.905Z,93459.25
2022-11-28T15:25:22.121Z,93449.13
2022-11-28T15:27:48.978Z,93425.38
2022-11-28T15:30:26.278Z,93417.25
2022-11-28T15:33:00.021Z,93448.03
2022-11-28T15:35:27.841Z,93440.88
2022-11-28T15:37:57.281Z,93455.34
2022-11-28T15:40:38.015Z,93432.75
2022-11-28T15:43:30.499Z,93458.31
2022-11-28T15:46:03.901Z,93454.69
2022-11-28T15:49:21.927Z,93460.13
2022-11-28T15:51:59.621Z,93442.91
2022-11-28T15:54:40.828Z,93457.13
2022-11-28T15:57:23.888Z,93463.41
2022-11-28T15:59:50.552Z,93445.56
2022-11-28T16:02:36.484Z,93458.16
2022-11-28T16:05:11.019Z,93440.72
2022-11-28T16:07:42.526Z,93440.72
2022-11-28T16:10:33.141Z,93453.88
2022-11-28T16:13:10.605Z,93455.78
2022-11-28T16:15:49.860Z,93407.53
2022-11-28T16:18:29.086Z,93450.19
2022-11-28T16:21:12.910Z,93444.16
2022-11-28T16:23:43.474Z,93425.56
2022-11-28T16:26:25.614Z,93462.56
2022-11-28T16:29:14.683Z,93465.75
2022-11-28T16:31:43.949Z,93438.09
2022-11-28T16:34:14.886Z,93468.00
2022-11-28T16:36:47.950Z,93423.94
2022-11-28T16:39:17.697Z,93387.13
2022-11-28T16:42:17.091Z,93468.44
2022-11-28T16:44:44.838Z,93447.38
2022-11-28T16:47:30.176Z,93445.31
2022-11-28T16:50:17.886Z,93460.78
2022-11-28T16:52:52.507Z,93463.81
2022-11-28T16:55:32.221Z,93462.28
2022-11-28T16:58:20.617Z,93462.38
2022-11-28T17:00:59.752Z,93441.47
2022-11-28T17:03:53.646Z,93464.44
2022-11-28T17:06:33.765Z,93467.75
2022-11-28T17:09:01.626Z,93456.94
2022-11-28T17:11:35.065Z,93441.28
2022-11-28T17:14:10.158Z,93442.00
2022-11-28T17:16:47.057Z,93452.03
2022-11-28T17:19:19.794Z,93453.00
2022-11-28T17:21:51.992Z,93460.41
2022-11-28T17:24:26.265Z,93475.78
2022-11-28T17:26:54.368Z,93437.19
2022-11-28T17:29:28.533Z,93457.56
2022-11-28T17:31:59.432Z,93467.19
2022-11-28T17:34:31.148Z,93477.13
2022-11-28T17:37:16.855Z,93475.53
2022-11-28T17:40:01.950Z,93473.28
2022-11-28T17:42:34.417Z,93439.25
2022-11-28T17:45:00.862Z,93461.13
2022-11-28T17:47:28.288Z,93461.66
2022-11-28T17:49:55.452Z,93475.78
2022-11-28T17:52:27.829Z,93485.81
2022-11-28T17:54:58.922Z,93456.84
2022-11-28T17:57:37.752Z,93470.44
2022-11-28T18:00:09.039Z,93471.50
2022-11-28T18:02:43.485Z,93489.94
2022-11-28T18:05:18.790Z,93490.81
2022-11-28T18:07:45.374Z,93463.88
2022-11-28T18:10:12.341Z,93465.94
2022-11-28T18:12:53.064Z,93459.63
2022-11-28T18:15:28.513Z,93467.66
2022-11-28T18:17:55.288Z,93477.94
2022-11-28T18:20:22.107Z,93466.41
2022-11-28T18:22:48.527Z,93486.44
2022-11-28T18:25:15.047Z,93482.78
2022-11-28T18:27:54.802Z,93473.56
2022-11-28T18:30:21.253Z,93483.84
2022-11-28T18:33:07.042Z,93491.16
2022-11-28T18:35:33.437Z,93461.03
2022-11-28T18:38:00.050Z,93487.78
2022-11-28T18:40:29.625Z,93456.31
2022-11-28T18:42:56.286Z,93456.69
2022-11-28T18:45:22.937Z,93463.28
2022-11-28T18:47:49.349Z,93462.75
2022-11-28T18:50:16.899Z,93478.81
2022-11-28T18:52:44.329Z,93464.44
2022-11-28T18:55:10.756Z,93479.38
2022-11-28T18:57:37.397Z,93465.25
2022-11-28T19:00:11.713Z,93473.28
2022-11-28T19:02:38.208Z,93471.88
2022-11-28T19:05:05.048Z,93460.50
2022-11-28T19:07:31.507Z,93486.69
2022-11-28T19:09:57.920Z,93469.91
2022-11-28T19:12:24.420Z,93480.19
2022-11-28T19:14:52.812Z,93499.03
2022-11-28T19:17:24.646Z,93487.03
2022-11-28T19:19:51.752Z,93479.91
2022-11-28T19:22:40.886Z,93497.72
2022-11-28T19:25:08.074Z,93508.78
2022-11-28T19:27:34.483Z,93480.09
2022-11-28T19:30:04.007Z,93479.72
2022-11-28T19:32:53.268Z,93496.19
2022-11-28T19:35:39.061Z,93495.38
2022-11-28T19:38:07.694Z,93492.22
2022-11-28T19:40:38.102Z,93486.50
2022-11-28T19:43:07.646Z,93472.50
2022-11-28T19:45:40.022Z,93484.91
2022-11-28T19:48:22.275Z,93500.09
2022-11-28T19:50:49.842Z,93465.59
2022-11-28T19:53:16.804Z,93470.06
2022-11-28T19:55:44.358Z,93492.69
2022-11-28T19:58:13.338Z,93499.75
2022-11-28T20:00:53.856Z,93482.13
2022-11-28T20:03:22.322Z,93476.66
2022-11-28T20:05:55.906Z,93476.22
2022-11-28T20:08:23.530Z,93478.19
2022-11-28T20:11:19.786Z,93502.41
2022-11-28T20:13:47.528Z,93500.09
2022-11-28T20:16:34.578Z,93514.41
2022-11-28T20:19:14.194Z,93511.91
2022-11-28T20:21:51.421Z,93483.84
2022-11-28T20:24:24.397Z,93493.50
2022-11-28T20:26:51.322Z,93516.56
2022-11-28T20:29:20.021Z,93521.75
2022-11-28T20:31:59.654Z,93491.69
2022-11-28T20:34:30.270Z,93490.06
2022-11-28T20:36:59.210Z,93494.38
2022-11-28T20:39:29.709Z,93504.94
2022-11-28T20:42:03.752Z,93521.75
2022-11-28T20:44:49.603Z,93520.22
2022-11-28T20:47:18.141Z,93512.44
2022-11-28T20:49:48.650Z,93485.06
2022-11-28T20:52:16.155Z,93507.94
2022-11-28T20:54:42.690Z,93473.53
2022-11-28T20:57:25.503Z,93489.88
2022-11-28T21:00:08.871Z,93526.50
2022-11-28T21:02:35.370Z,93515.03
2022-11-28T21:05:01.862Z,93511.81
2022-11-28T21:07:34.497Z,93520.84
2022-11-28T21:10:03.683Z,93498.84
2022-11-28T21:12:30.067Z,93498.28
2022-11-28T21:14:56.829Z,93519.94
2022-11-28T21:17:23.390Z,93504.03
2022-11-28T21:19:49.849Z,93482.75
2022-11-28T21:22:23.399Z,93511.38
2022-11-28T21:24:51.268Z,93516.00
2022-11-28T21:27:19.855Z,93511.03
2022-11-28T21:30:01.889Z,93527.81
2022-11-28T21:32:29.321Z,93501.72
2022-11-28T21:35:01.051Z,93499.31
2022-11-28T21:37:31.504Z,93482.38
2022-11-28T21:39:57.974Z,93518.44
2022-11-28T21:42:26.458Z,93497.59
2022-11-28T21:44:52.936Z,93502.06
2022-11-28T21:47:19.350Z,93496.53
2022-11-28T21:49:47.077Z,93488.13
2022-11-28T21:52:13.541Z,93496.19
2022-11-28T21:54:42.092Z,93485.63
2022-11-28T21:57:08.504Z,93497.59
2022-11-28T21:59:35.021Z,93498.50
2022-11-28T22:02:08.570Z,93509.06
2022-11-28T22:04:37.657Z,93519.69
2022-11-28T22:07:05.097Z,93517.00
2022-11-28T22:09:31.528Z,93488.03
2022-11-28T22:11:57.941Z,93496.97
2022-11-28T22:14:48.139Z,93527.03
2022-11-28T22:17:14.652Z,93518.59
2022-11-28T22:19:41.418Z,93514.06
2022-11-28T22:22:14.078Z,93522.44
2022-11-28T22:24:40.491Z,93509.03
2022-11-28T22:27:06.907Z,93509.72
2022-11-28T22:29:33.593Z,93501.69
2022-11-28T22:32:00.198Z,93522.59
2022-11-28T22:34:26.729Z,93527.09
2022-11-28T22:37:11.503Z,93507.78
2022-11-28T22:39:47.240Z,93508.66
2022-11-28T22:42:13.879Z,93507.06
2022-11-28T22:44:48.464Z,93512.25
2022-11-28T22:47:14.933Z,93512.59
2022-11-28T22:49:42.361Z,93509.03
2022-11-28T22:52:12.863Z,93506.63
2022-11-28T22:54:39.302Z,93510.97
2022-11-28T22:57:13.746Z,93505.28
2022-11-28T22:59:40.202Z,93505.44
2022-11-28T23:02:24.050Z,93520.28
2022-11-28T23:05:01.947Z,93509.03
2022-11-28T23:07:35.763Z,93501.88
2022-11-28T23:10:02.428Z,93529.97
2022-11-28T23:12:28.918Z,93522.25
2022-11-28T23:14:55.333Z,93498.44
2022-11-28T23:17:41.096Z,93512.94
2022-11-28T23:20:15.808Z,93512.03
2022-11-28T23:22:44.411Z,93506.63
2022-11-28T23:25:14.067Z,93514.75
2022-11-28T23:27:42.521Z,93507.69
2022-11-28T23:30:10.387Z,93505.63
2022-11-28T23:32:59.634Z,93527.28
2022-11-28T23:35:28.158Z,93511.78
2022-11-28T23:37:55.646Z,93515.25
2022-11-28T23:40:22.261Z,93517.22
2022-11-28T23:42:49.693Z,93505.94
2022-11-28T23:45:17.217Z,93531.69
2022-11-28T23:47:51.763Z,93510.78
2022-11-28T23:50:19.402Z,93512.03
2022-11-28T23:52:45.845Z,93536.19
2022-11-28T23:55:12.366Z,93515.53
2022-11-28T23:57:38.761Z,93507.41
